sensor_id;sensor_type;location;lat;lon;timestamp;P1;durP1;ratioP1;P2;durP2;ratioP2
40072;SDS011;25774;52.256;9.356;2023-04-07T00:01:01;17.23;;;8.57;;
40072;SDS011;25774;52.256;9.356;2023-04-07T00:03:26;16.53;;;8.47;;
40072;SDS011;25774;52.256;9.356;2023-04-07T00:05:52;16.30;;;9.00;;
40072;SDS011;25774;52.256;9.356;2023-04-07T00:08:18;15.43;;;7.22;;
40072;SDS011;25774;52.256;9.356;2023-04-07T00:10:43;15.83;;;7.97;;
40072;SDS011;25774;52.256;9.356;2023-04-07T00:13:08;19.50;;;9.07;;
40072;SDS011;25774;52.256;9.356;2023-04-07T00:15:33;18.00;;;8.83;;
40072;SDS011;25774;52.256;9.356;2023-04-07T00:17:59;18.10;;;8.90;;
40072;SDS011;25774;52.256;9.356;2023-04-07T00:20:24;16.60;;;7.73;;
40072;SDS011;25774;52.256;9.356;2023-04-07T00:22:49;16.50;;;9.20;;
40072;SDS011;25774;52.256;9.356;2023-04-07T00:25:14;19.10;;;8.60;;
40072;SDS011;25774;52.256;9.356;2023-04-07T00:27:40;17.63;;;8.40;;
40072;SDS011;25774;52.256;9.356;2023-04-07T00:30:05;19.70;;;9.47;;
40072;SDS011;25774;52.256;9.356;2023-04-07T00:32:30;12.93;;;6.50;;
40072;SDS011;25774;52.256;9.356;2023-04-07T00:34:56;17.27;;;8.10;;
40072;SDS011;25774;52.256;9.356;2023-04-07T00:37:22;15.57;;;8.37;;
40072;SDS011;25774;52.256;9.356;2023-04-07T00:39:49;20.13;;;8.82;;
40072;SDS011;25774;52.256;9.356;2023-04-07T00:42:15;20.15;;;9.50;;
40072;SDS011;25774;52.256;9.356;2023-04-07T00:44:40;23.03;;;9.63;;
40072;SDS011;25774;52.256;9.356;2023-04-07T00:47:05;15.77;;;8.63;;
40072;SDS011;25774;52.256;9.356;2023-04-07T00:49:31;14.30;;;7.90;;
40072;SDS011;25774;52.256;9.356;2023-04-07T00:51:56;15.23;;;8.33;;
40072;SDS011;25774;52.256;9.356;2023-04-07T00:54:24;14.07;;;6.53;;
40072;SDS011;25774;52.256;9.356;2023-04-07T00:56:50;15.93;;;8.32;;
40072;SDS011;25774;52.256;9.356;2023-04-07T00:59:16;16.08;;;8.25;;
40072;SDS011;25774;52.256;9.356;2023-04-07T01:01:47;16.07;;;8.40;;
40072;SDS011;25774;52.256;9.356;2023-04-07T01:04:50;17.70;;;8.90;;
40072;SDS011;25774;52.256;9.356;2023-04-07T01:07:08;17.95;;;8.57;;
40072;SDS011;25774;52.256;9.356;2023-04-07T01:09:36;17.50;;;8.00;;
40072;SDS011;25774;52.256;9.356;2023-04-07T01:12:10;15.27;;;8.52;;
40072;SDS011;25774;52.256;9.356;2023-04-07T01:14:39;19.75;;;8.38;;
40072;SDS011;25774;52.256;9.356;2023-04-07T01:17:05;17.02;;;8.60;;
40072;SDS011;25774;52.256;9.356;2023-04-07T01:19:38;16.38;;;8.32;;
40072;SDS011;25774;52.256;9.356;2023-04-07T01:22:12;19.83;;;9.15;;
40072;SDS011;25774;52.256;9.356;2023-04-07T01:24:41;18.63;;;9.18;;
40072;SDS011;25774;52.256;9.356;2023-04-07T01:27:48;14.55;;;7.88;;
40072;SDS011;25774;52.256;9.356;2023-04-07T01:30:01;16.95;;;8.25;;
40072;SDS011;25774;52.256;9.356;2023-04-07T01:32:27;19.02;;;8.20;;
40072;SDS011;25774;52.256;9.356;2023-04-07T01:34:53;16.77;;;8.25;;
40072;SDS011;25774;52.256;9.356;2023-04-07T01:37:19;15.80;;;8.48;;
40072;SDS011;25774;52.256;9.356;2023-04-07T01:39:45;14.63;;;7.60;;
40072;SDS011;25774;52.256;9.356;2023-04-07T01:42:11;18.87;;;8.07;;
40072;SDS011;25774;52.256;9.356;2023-04-07T01:47:02;15.05;;;8.00;;
40072;SDS011;25774;52.256;9.356;2023-04-07T01:49:27;15.47;;;8.33;;
40072;SDS011;25774;52.256;9.356;2023-04-07T01:51:53;17.93;;;8.43;;
40072;SDS011;25774;52.256;9.356;2023-04-07T01:54:18;16.90;;;8.63;;
40072;SDS011;25774;52.256;9.356;2023-04-07T01:56:44;17.45;;;8.43;;
40072;SDS011;25774;52.256;9.356;2023-04-07T01:59:10;19.67;;;9.07;;
40072;SDS011;25774;52.256;9.356;2023-04-07T02:01:36;15.43;;;8.32;;
40072;SDS011;25774;52.256;9.356;2023-04-07T02:04:16;14.43;;;8.10;;
40072;SDS011;25774;52.256;9.356;2023-04-07T02:06:45;17.55;;;8.57;;
40072;SDS011;25774;52.256;9.356;2023-04-07T02:09:13;18.23;;;8.80;;
40072;SDS011;25774;52.256;9.356;2023-04-07T02:14:05;18.40;;;8.85;;
40072;SDS011;25774;52.256;9.356;2023-04-07T02:16:31;18.15;;;8.75;;
40072;SDS011;25774;52.256;9.356;2023-04-07T02:18:56;17.92;;;8.60;;
40072;SDS011;25774;52.256;9.356;2023-04-07T02:21:22;16.90;;;8.48;;
40072;SDS011;25774;52.256;9.356;2023-04-07T02:23:48;20.60;;;9.70;;
40072;SDS011;25774;52.256;9.356;2023-04-07T02:26:13;20.30;;;10.20;;
40072;SDS011;25774;52.256;9.356;2023-04-07T02:28:38;17.77;;;9.67;;
40072;SDS011;25774;52.256;9.356;2023-04-07T02:31:03;14.77;;;8.40;;
40072;SDS011;25774;52.256;9.356;2023-04-07T02:33:28;19.50;;;9.40;;
40072;SDS011;25774;52.256;9.356;2023-04-07T02:35:54;16.73;;;8.97;;
40072;SDS011;25774;52.256;9.356;2023-04-07T02:38:19;18.30;;;8.97;;
40072;SDS011;25774;52.256;9.356;2023-04-07T02:40:44;17.07;;;9.17;;
40072;SDS011;25774;52.256;9.356;2023-04-07T02:43:09;17.27;;;8.57;;
40072;SDS011;25774;52.256;9.356;2023-04-07T02:45:35;16.50;;;9.67;;
40072;SDS011;25774;52.256;9.356;2023-04-07T02:48:00;15.33;;;8.37;;
40072;SDS011;25774;52.256;9.356;2023-04-07T02:50:25;16.03;;;8.50;;
40072;SDS011;25774;52.256;9.356;2023-04-07T02:52:50;17.93;;;9.30;;
40072;SDS011;25774;52.256;9.356;2023-04-07T02:55:15;16.53;;;8.63;;
40072;SDS011;25774;52.256;9.356;2023-04-07T03:00:08;15.15;;;8.07;;
40072;SDS011;25774;52.256;9.356;2023-04-07T03:02:34;19.55;;;8.63;;
40072;SDS011;25774;52.256;9.356;2023-04-07T03:04:59;17.40;;;8.87;;
40072;SDS011;25774;52.256;9.356;2023-04-07T03:07:24;14.37;;;8.43;;
40072;SDS011;25774;52.256;9.356;2023-04-07T03:09:50;12.57;;;7.13;;
40072;SDS011;25774;52.256;9.356;2023-04-07T03:12:15;18.10;;;8.73;;
40072;SDS011;25774;52.256;9.356;2023-04-07T03:14:40;16.03;;;8.47;;
40072;SDS011;25774;52.256;9.356;2023-04-07T03:17:06;17.73;;;8.07;;
40072;SDS011;25774;52.256;9.356;2023-04-07T03:19:31;16.47;;;7.80;;
40072;SDS011;25774;52.256;9.356;2023-04-07T03:21:56;19.23;;;8.90;;
40072;SDS011;25774;52.256;9.356;2023-04-07T03:24:21;19.07;;;9.67;;
40072;SDS011;25774;52.256;9.356;2023-04-07T03:26:47;17.60;;;8.60;;
40072;SDS011;25774;52.256;9.356;2023-04-07T03:29:12;15.03;;;8.47;;
40072;SDS011;25774;52.256;9.356;2023-04-07T03:31:37;17.37;;;8.63;;
40072;SDS011;25774;52.256;9.356;2023-04-07T03:34:03;18.20;;;8.43;;
40072;SDS011;25774;52.256;9.356;2023-04-07T03:36:28;19.27;;;10.52;;
40072;SDS011;25774;52.256;9.356;2023-04-07T03:38:53;18.63;;;9.03;;
40072;SDS011;25774;52.256;9.356;2023-04-07T03:41:18;19.27;;;9.70;;
40072;SDS011;25774;52.256;9.356;2023-04-07T03:43:44;18.10;;;8.47;;
40072;SDS011;25774;52.256;9.356;2023-04-07T03:46:09;18.60;;;8.63;;
40072;SDS011;25774;52.256;9.356;2023-04-07T03:48:34;17.83;;;9.73;;
40072;SDS011;25774;52.256;9.356;2023-04-07T03:51:00;20.98;;;10.27;;
40072;SDS011;25774;52.256;9.356;2023-04-07T03:53:27;17.20;;;9.45;;
40072;SDS011;25774;52.256;9.356;2023-04-07T03:55:54;17.85;;;9.63;;
40072;SDS011;25774;52.256;9.356;2023-04-07T04:00:44;16.33;;;8.60;;
40072;SDS011;25774;52.256;9.356;2023-04-07T04:03:10;15.00;;;8.33;;
40072;SDS011;25774;52.256;9.356;2023-04-07T04:05:35;17.23;;;8.70;;
40072;SDS011;25774;52.256;9.356;2023-04-07T04:08:00;19.23;;;9.27;;
40072;SDS011;25774;52.256;9.356;2023-04-07T04:10:26;16.50;;;9.10;;
40072;SDS011;25774;52.256;9.356;2023-04-07T04:12:52;17.70;;;8.85;;
40072;SDS011;25774;52.256;9.356;2023-04-07T04:15:18;18.17;;;9.33;;
40072;SDS011;25774;52.256;9.356;2023-04-07T04:17:43;15.90;;;8.63;;
40072;SDS011;25774;52.256;9.356;2023-04-07T04:20:09;16.77;;;9.40;;
40072;SDS011;25774;52.256;9.356;2023-04-07T04:22:37;20.13;;;9.40;;
40072;SDS011;25774;52.256;9.356;2023-04-07T04:25:02;16.30;;;8.95;;
40072;SDS011;25774;52.256;9.356;2023-04-07T04:27:28;16.27;;;9.27;;
40072;SDS011;25774;52.256;9.356;2023-04-07T04:29:53;19.50;;;9.37;;
40072;SDS011;25774;52.256;9.356;2023-04-07T04:32:19;16.53;;;9.17;;
40072;SDS011;25774;52.256;9.356;2023-04-07T04:34:45;16.73;;;8.68;;
40072;SDS011;25774;52.256;9.356;2023-04-07T04:37:10;16.77;;;9.03;;
40072;SDS011;25774;52.256;9.356;2023-04-07T04:39:35;18.90;;;9.80;;
40072;SDS011;25774;52.256;9.356;2023-04-07T04:42:01;21.30;;;8.63;;
40072;SDS011;25774;52.256;9.356;2023-04-07T04:44:27;17.30;;;8.98;;
40072;SDS011;25774;52.256;9.356;2023-04-07T04:49:19;16.98;;;8.65;;
40072;SDS011;25774;52.256;9.356;2023-04-07T04:51:44;15.83;;;7.90;;
40072;SDS011;25774;52.256;9.356;2023-04-07T04:54:09;18.80;;;9.00;;
40072;SDS011;25774;52.256;9.356;2023-04-07T04:56:35;16.80;;;8.70;;
40072;SDS011;25774;52.256;9.356;2023-04-07T04:59:00;25.63;;;10.13;;
40072;SDS011;25774;52.256;9.356;2023-04-07T05:01:26;16.83;;;9.18;;
40072;SDS011;25774;52.256;9.356;2023-04-07T05:03:51;18.03;;;9.20;;
40072;SDS011;25774;52.256;9.356;2023-04-07T05:06:17;17.97;;;8.90;;
40072;SDS011;25774;52.256;9.356;2023-04-07T05:08:42;15.52;;;8.68;;
40072;SDS011;25774;52.256;9.356;2023-04-07T05:11:08;16.30;;;8.80;;
40072;SDS011;25774;52.256;9.356;2023-04-07T05:13:33;23.77;;;10.60;;
40072;SDS011;25774;52.256;9.356;2023-04-07T05:15:58;17.77;;;9.73;;
40072;SDS011;25774;52.256;9.356;2023-04-07T05:18:23;19.27;;;9.93;;
40072;SDS011;25774;52.256;9.356;2023-04-07T05:20:48;17.13;;;9.00;;
40072;SDS011;25774;52.256;9.356;2023-04-07T05:23:14;18.73;;;9.77;;
40072;SDS011;25774;52.256;9.356;2023-04-07T05:25:39;19.57;;;9.97;;
40072;SDS011;25774;52.256;9.356;2023-04-07T05:28:04;20.97;;;10.40;;
40072;SDS011;25774;52.256;9.356;2023-04-07T05:30:31;18.53;;;9.47;;
40072;SDS011;25774;52.256;9.356;2023-04-07T05:32:56;20.35;;;10.43;;
40072;SDS011;25774;52.256;9.356;2023-04-07T05:35:21;17.57;;;9.53;;
40072;SDS011;25774;52.256;9.356;2023-04-07T05:37:47;16.97;;;9.90;;
40072;SDS011;25774;52.256;9.356;2023-04-07T05:40:13;19.40;;;9.77;;
40072;SDS011;25774;52.256;9.356;2023-04-07T05:42:38;17.70;;;9.98;;
40072;SDS011;25774;52.256;9.356;2023-04-07T05:45:03;19.33;;;10.50;;
40072;SDS011;25774;52.256;9.356;2023-04-07T05:47:30;19.85;;;10.25;;
40072;SDS011;25774;52.256;9.356;2023-04-07T05:49:55;19.35;;;10.40;;
40072;SDS011;25774;52.256;9.356;2023-04-07T05:52:21;21.40;;;10.93;;
40072;SDS011;25774;52.256;9.356;2023-04-07T05:54:47;18.25;;;9.73;;
40072;SDS011;25774;52.256;9.356;2023-04-07T05:57:12;20.10;;;10.80;;
40072;SDS011;25774;52.256;9.356;2023-04-07T05:59:37;19.90;;;11.00;;
40072;SDS011;25774;52.256;9.356;2023-04-07T06:02:03;19.90;;;9.90;;
40072;SDS011;25774;52.256;9.356;2023-04-07T06:04:29;20.60;;;10.98;;
40072;SDS011;25774;52.256;9.356;2023-04-07T06:09:20;19.15;;;9.82;;
40072;SDS011;25774;52.256;9.356;2023-04-07T06:11:45;22.38;;;10.02;;
40072;SDS011;25774;52.256;9.356;2023-04-07T06:14:11;16.60;;;9.23;;
40072;SDS011;25774;52.256;9.356;2023-04-07T06:16:36;20.73;;;10.60;;
40072;SDS011;25774;52.256;9.356;2023-04-07T06:19:02;17.57;;;9.53;;
40072;SDS011;25774;52.256;9.356;2023-04-07T06:21:28;16.45;;;9.32;;
40072;SDS011;25774;52.256;9.356;2023-04-07T06:23:53;21.23;;;9.83;;
40072;SDS011;25774;52.256;9.356;2023-04-07T06:26:18;16.03;;;9.23;;
40072;SDS011;25774;52.256;9.356;2023-04-07T06:28:43;18.90;;;9.83;;
40072;SDS011;25774;52.256;9.356;2023-04-07T06:31:09;13.87;;;7.80;;
40072;SDS011;25774;52.256;9.356;2023-04-07T06:33:35;15.50;;;8.65;;
40072;SDS011;25774;52.256;9.356;2023-04-07T06:36:00;15.63;;;8.93;;
40072;SDS011;25774;52.256;9.356;2023-04-07T06:38:27;16.37;;;9.33;;
40072;SDS011;25774;52.256;9.356;2023-04-07T06:40:52;14.52;;;8.43;;
40072;SDS011;25774;52.256;9.356;2023-04-07T06:43:17;15.40;;;8.57;;
40072;SDS011;25774;52.256;9.356;2023-04-07T06:45:42;18.00;;;8.63;;
40072;SDS011;25774;52.256;9.356;2023-04-07T06:48:07;14.87;;;8.13;;
40072;SDS011;25774;52.256;9.356;2023-04-07T06:50:35;15.35;;;8.65;;
40072;SDS011;25774;52.256;9.356;2023-04-07T06:53:01;13.80;;;7.25;;
40072;SDS011;25774;52.256;9.356;2023-04-07T06:55:26;11.20;;;6.23;;
40072;SDS011;25774;52.256;9.356;2023-04-07T06:57:51;14.07;;;7.93;;
40072;SDS011;25774;52.256;9.356;2023-04-07T07:00:16;14.70;;;8.17;;
40072;SDS011;25774;52.256;9.356;2023-04-07T07:02:42;13.07;;;7.35;;
40072;SDS011;25774;52.256;9.356;2023-04-07T07:05:08;13.83;;;7.20;;
40072;SDS011;25774;52.256;9.356;2023-04-07T07:07:33;12.83;;;6.87;;
40072;SDS011;25774;52.256;9.356;2023-04-07T07:09:58;13.80;;;7.13;;
40072;SDS011;25774;52.256;9.356;2023-04-07T07:12:23;20.90;;;7.60;;
40072;SDS011;25774;52.256;9.356;2023-04-07T07:14:48;12.30;;;6.50;;
40072;SDS011;25774;52.256;9.356;2023-04-07T07:17:14;12.70;;;7.10;;
40072;SDS011;25774;52.256;9.356;2023-04-07T07:19:39;14.83;;;7.53;;
40072;SDS011;25774;52.256;9.356;2023-04-07T07:22:04;13.50;;;7.20;;
40072;SDS011;25774;52.256;9.356;2023-04-07T07:24:30;14.43;;;7.67;;
40072;SDS011;25774;52.256;9.356;2023-04-07T07:26:57;15.32;;;8.00;;
40072;SDS011;25774;52.256;9.356;2023-04-07T07:29:23;15.97;;;7.97;;
40072;SDS011;25774;52.256;9.356;2023-04-07T07:31:48;16.43;;;8.20;;
40072;SDS011;25774;52.256;9.356;2023-04-07T07:34:14;11.23;;;6.17;;
40072;SDS011;25774;52.256;9.356;2023-04-07T07:36:39;12.85;;;7.60;;
40072;SDS011;25774;52.256;9.356;2023-04-07T07:39:05;15.30;;;7.57;;
40072;SDS011;25774;52.256;9.356;2023-04-07T07:41:30;14.30;;;7.45;;
40072;SDS011;25774;52.256;9.356;2023-04-07T07:43:56;20.20;;;7.53;;
40072;SDS011;25774;52.256;9.356;2023-04-07T07:46:21;17.40;;;7.50;;
40072;SDS011;25774;52.256;9.356;2023-04-07T07:48:48;11.27;;;6.78;;
40072;SDS011;25774;52.256;9.356;2023-04-07T07:51:13;13.97;;;7.13;;
40072;SDS011;25774;52.256;9.356;2023-04-07T07:53:38;15.27;;;7.00;;
40072;SDS011;25774;52.256;9.356;2023-04-07T07:56:04;12.80;;;6.37;;
40072;SDS011;25774;52.256;9.356;2023-04-07T07:58:29;14.23;;;7.23;;
40072;SDS011;25774;52.256;9.356;2023-04-07T08:00:54;11.80;;;6.23;;
40072;SDS011;25774;52.256;9.356;2023-04-07T08:03:19;12.13;;;6.97;;
40072;SDS011;25774;52.256;9.356;2023-04-07T08:08:11;14.25;;;7.00;;
40072;SDS011;25774;52.256;9.356;2023-04-07T08:10:36;14.80;;;6.47;;
40072;SDS011;25774;52.256;9.356;2023-04-07T08:13:02;11.30;;;5.90;;
40072;SDS011;25774;52.256;9.356;2023-04-07T08:15:27;11.80;;;6.37;;
40072;SDS011;25774;52.256;9.356;2023-04-07T08:17:52;12.77;;;6.70;;
40072;SDS011;25774;52.256;9.356;2023-04-07T08:20:17;9.30;;;6.07;;
40072;SDS011;25774;52.256;9.356;2023-04-07T08:22:42;13.77;;;6.43;;
40072;SDS011;25774;52.256;9.356;2023-04-07T08:25:08;9.23;;;5.60;;
40072;SDS011;25774;52.256;9.356;2023-04-07T08:27:33;14.13;;;6.28;;
40072;SDS011;25774;52.256;9.356;2023-04-07T08:30:02;10.27;;;5.53;;
40072;SDS011;25774;52.256;9.356;2023-04-07T08:32:39;12.30;;;6.22;;
40072;SDS011;25774;52.256;9.356;2023-04-07T08:37:30;12.23;;;6.45;;
40072;SDS011;25774;52.256;9.356;2023-04-07T08:39:55;10.40;;;6.28;;
40072;SDS011;25774;52.256;9.356;2023-04-07T08:42:21;12.47;;;6.27;;
40072;SDS011;25774;52.256;9.356;2023-04-07T08:47:12;12.82;;;6.22;;
40072;SDS011;25774;52.256;9.356;2023-04-07T08:49:39;11.60;;;6.28;;
40072;SDS011;25774;52.256;9.356;2023-04-07T08:52:07;14.40;;;7.70;;
40072;SDS011;25774;52.256;9.356;2023-04-07T08:54:34;14.15;;;6.47;;
40072;SDS011;25774;52.256;9.356;2023-04-07T08:56:59;11.30;;;6.30;;
40072;SDS011;25774;52.256;9.356;2023-04-07T08:59:26;10.05;;;5.57;;
40072;SDS011;25774;52.256;9.356;2023-04-07T09:01:53;9.93;;;6.10;;
40072;SDS011;25774;52.256;9.356;2023-04-07T09:04:19;10.45;;;6.20;;
40072;SDS011;25774;52.256;9.356;2023-04-07T09:06:44;11.00;;;6.17;;
40072;SDS011;25774;52.256;9.356;2023-04-07T09:09:09;11.53;;;6.10;;
40072;SDS011;25774;52.256;9.356;2023-04-07T09:11:36;11.97;;;6.70;;
40072;SDS011;25774;52.256;9.356;2023-04-07T09:14:01;12.38;;;5.63;;
40072;SDS011;25774;52.256;9.356;2023-04-07T09:16:27;11.43;;;6.03;;
40072;SDS011;25774;52.256;9.356;2023-04-07T09:18:53;12.35;;;6.32;;
40072;SDS011;25774;52.256;9.356;2023-04-07T09:21:19;13.47;;;5.67;;
40072;SDS011;25774;52.256;9.356;2023-04-07T09:28:46;13.32;;;6.38;;
40072;SDS011;25774;52.256;9.356;2023-04-07T09:31:12;13.20;;;6.45;;
40072;SDS011;25774;52.256;9.356;2023-04-07T09:33:37;12.10;;;6.60;;
40072;SDS011;25774;52.256;9.356;2023-04-07T09:36:03;12.43;;;6.80;;
40072;SDS011;25774;52.256;9.356;2023-04-07T09:40:55;12.40;;;6.28;;
40072;SDS011;25774;52.256;9.356;2023-04-07T09:43:29;12.85;;;6.50;;
40072;SDS011;25774;52.256;9.356;2023-04-07T09:46:05;14.83;;;6.60;;
40072;SDS011;25774;52.256;9.356;2023-04-07T09:48:30;14.20;;;7.93;;
40072;SDS011;25774;52.256;9.356;2023-04-07T09:51:03;14.48;;;6.68;;
40072;SDS011;25774;52.256;9.356;2023-04-07T09:53:42;16.13;;;6.88;;
40072;SDS011;25774;52.256;9.356;2023-04-07T09:56:08;13.48;;;7.03;;
40072;SDS011;25774;52.256;9.356;2023-04-07T09:58:33;14.63;;;6.85;;
40072;SDS011;25774;52.256;9.356;2023-04-07T10:00:59;16.20;;;8.30;;
40072;SDS011;25774;52.256;9.356;2023-04-07T10:03:25;13.13;;;7.20;;
40072;SDS011;25774;52.256;9.356;2023-04-07T10:05:51;14.20;;;7.20;;
40072;SDS011;25774;52.256;9.356;2023-04-07T10:08:18;14.93;;;7.40;;
40072;SDS011;25774;52.256;9.356;2023-04-07T10:10:44;17.33;;;8.40;;
40072;SDS011;25774;52.256;9.356;2023-04-07T10:13:10;13.17;;;8.00;;
40072;SDS011;25774;52.256;9.356;2023-04-07T10:15:36;13.70;;;8.03;;
40072;SDS011;25774;52.256;9.356;2023-04-07T10:18:01;14.68;;;7.75;;
40072;SDS011;25774;52.256;9.356;2023-04-07T10:20:28;13.45;;;7.70;;
40072;SDS011;25774;52.256;9.356;2023-04-07T10:22:53;15.50;;;7.87;;
40072;SDS011;25774;52.256;9.356;2023-04-07T10:25:21;12.80;;;7.05;;
40072;SDS011;25774;52.256;9.356;2023-04-07T10:27:50;11.80;;;6.93;;
40072;SDS011;25774;52.256;9.356;2023-04-07T10:30:28;16.00;;;7.85;;
40072;SDS011;25774;52.256;9.356;2023-04-07T10:32:54;14.48;;;7.63;;
40072;SDS011;25774;52.256;9.356;2023-04-07T10:35:20;14.50;;;7.57;;
40072;SDS011;25774;52.256;9.356;2023-04-07T10:40:29;11.98;;;6.55;;
40072;SDS011;25774;52.256;9.356;2023-04-07T10:42:55;11.85;;;6.38;;
40072;SDS011;25774;52.256;9.356;2023-04-07T10:50:31;11.93;;;6.82;;
40072;SDS011;25774;52.256;9.356;2023-04-07T10:53:06;13.50;;;6.95;;
40072;SDS011;25774;52.256;9.356;2023-04-07T10:55:33;13.10;;;7.45;;
40072;SDS011;25774;52.256;9.356;2023-04-07T11:00:39;12.63;;;6.85;;
40072;SDS011;25774;52.256;9.356;2023-04-07T11:03:13;12.20;;;6.67;;
40072;SDS011;25774;52.256;9.356;2023-04-07T11:05:39;10.13;;;5.50;;
40072;SDS011;25774;52.256;9.356;2023-04-07T11:08:04;11.10;;;5.75;;
40072;SDS011;25774;52.256;9.356;2023-04-07T11:10:31;10.73;;;5.30;;
40072;SDS011;25774;52.256;9.356;2023-04-07T11:15:25;9.85;;;5.13;;
40072;SDS011;25774;52.256;9.356;2023-04-07T11:18:06;10.77;;;5.05;;
40072;SDS011;25774;52.256;9.356;2023-04-07T11:20:39;8.73;;;4.75;;
40072;SDS011;25774;52.256;9.356;2023-04-07T11:23:05;12.32;;;5.32;;
40072;SDS011;25774;52.256;9.356;2023-04-07T11:25:30;8.17;;;4.83;;
40072;SDS011;25774;52.256;9.356;2023-04-07T11:27:58;10.10;;;5.38;;
40072;SDS011;25774;52.256;9.356;2023-04-07T11:30:23;8.82;;;5.00;;
40072;SDS011;25774;52.256;9.356;2023-04-07T11:32:48;11.97;;;5.87;;
40072;SDS011;25774;52.256;9.356;2023-04-07T11:35:14;9.85;;;5.35;;
40072;SDS011;25774;52.256;9.356;2023-04-07T11:37:40;8.07;;;4.93;;
40072;SDS011;25774;52.256;9.356;2023-04-07T11:40:06;9.98;;;4.68;;
40072;SDS011;25774;52.256;9.356;2023-04-07T11:42:37;10.20;;;5.35;;
40072;SDS011;25774;52.256;9.356;2023-04-07T11:45:04;12.13;;;5.50;;
40072;SDS011;25774;52.256;9.356;2023-04-07T11:47:36;10.70;;;5.35;;
40072;SDS011;25774;52.256;9.356;2023-04-07T11:50:01;10.05;;;5.15;;
40072;SDS011;25774;52.256;9.356;2023-04-07T11:52:27;10.82;;;5.85;;
40072;SDS011;25774;52.256;9.356;2023-04-07T11:54:52;12.13;;;5.70;;
40072;SDS011;25774;52.256;9.356;2023-04-07T11:57:28;11.00;;;5.43;;
40072;SDS011;25774;52.256;9.356;2023-04-07T12:00:06;10.30;;;4.90;;
40072;SDS011;25774;52.256;9.356;2023-04-07T12:02:32;12.02;;;5.75;;
40072;SDS011;25774;52.256;9.356;2023-04-07T12:04:57;12.32;;;5.70;;
40072;SDS011;25774;52.256;9.356;2023-04-07T12:07:22;12.30;;;5.77;;
40072;SDS011;25774;52.256;9.356;2023-04-07T12:09:48;13.13;;;5.77;;
40072;SDS011;25774;52.256;9.356;2023-04-07T12:12:13;10.77;;;6.13;;
40072;SDS011;25774;52.256;9.356;2023-04-07T12:14:38;9.27;;;5.37;;
40072;SDS011;25774;52.256;9.356;2023-04-07T12:17:03;11.70;;;5.40;;
40072;SDS011;25774;52.256;9.356;2023-04-07T12:19:29;9.30;;;4.90;;
40072;SDS011;25774;52.256;9.356;2023-04-07T12:21:56;9.20;;;5.20;;
40072;SDS011;25774;52.256;9.356;2023-04-07T12:24:22;8.83;;;4.93;;
40072;SDS011;25774;52.256;9.356;2023-04-07T12:26:48;10.88;;;5.32;;
40072;SDS011;25774;52.256;9.356;2023-04-07T12:31:39;10.60;;;5.30;;
40072;SDS011;25774;52.256;9.356;2023-04-07T12:34:04;11.20;;;5.03;;
40072;SDS011;25774;52.256;9.356;2023-04-07T12:36:29;8.43;;;4.63;;
40072;SDS011;25774;52.256;9.356;2023-04-07T12:38:55;10.60;;;5.70;;
40072;SDS011;25774;52.256;9.356;2023-04-07T12:41:20;13.73;;;6.32;;
40072;SDS011;25774;52.256;9.356;2023-04-07T12:43:45;11.53;;;5.63;;
40072;SDS011;25774;52.256;9.356;2023-04-07T12:46:11;11.40;;;5.83;;
40072;SDS011;25774;52.256;9.356;2023-04-07T12:48:36;12.40;;;5.03;;
40072;SDS011;25774;52.256;9.356;2023-04-07T12:51:01;10.07;;;5.27;;
40072;SDS011;25774;52.256;9.356;2023-04-07T12:53:26;9.33;;;5.57;;
40072;SDS011;25774;52.256;9.356;2023-04-07T12:55:52;9.98;;;4.93;;
40072;SDS011;25774;52.256;9.356;2023-04-07T12:58:18;11.43;;;5.77;;
40072;SDS011;25774;52.256;9.356;2023-04-07T13:00:43;10.32;;;4.95;;
40072;SDS011;25774;52.256;9.356;2023-04-07T13:03:08;12.65;;;5.47;;
40072;SDS011;25774;52.256;9.356;2023-04-07T13:05:34;8.83;;;4.63;;
40072;SDS011;25774;52.256;9.356;2023-04-07T13:07:59;10.15;;;5.00;;
40072;SDS011;25774;52.256;9.356;2023-04-07T13:10:24;11.23;;;5.90;;
40072;SDS011;25774;52.256;9.356;2023-04-07T13:12:50;9.43;;;5.00;;
40072;SDS011;25774;52.256;9.356;2023-04-07T13:15:15;10.10;;;4.97;;
40072;SDS011;25774;52.256;9.356;2023-04-07T13:17:40;10.93;;;5.40;;
40072;SDS011;25774;52.256;9.356;2023-04-07T13:20:06;8.90;;;5.05;;
40072;SDS011;25774;52.256;9.356;2023-04-07T13:22:31;10.00;;;4.97;;
40072;SDS011;25774;52.256;9.356;2023-04-07T13:24:56;9.17;;;4.57;;
40072;SDS011;25774;52.256;9.356;2023-04-07T13:27:22;10.55;;;5.63;;
40072;SDS011;25774;52.256;9.356;2023-04-07T13:29:48;8.67;;;4.57;;
40072;SDS011;25774;52.256;9.356;2023-04-07T13:32:14;8.68;;;5.22;;
40072;SDS011;25774;52.256;9.356;2023-04-07T13:34:39;10.05;;;5.30;;
40072;SDS011;25774;52.256;9.356;2023-04-07T13:37:05;9.03;;;4.73;;
40072;SDS011;25774;52.256;9.356;2023-04-07T13:39:30;9.03;;;5.00;;
40072;SDS011;25774;52.256;9.356;2023-04-07T13:41:56;11.50;;;5.38;;
40072;SDS011;25774;52.256;9.356;2023-04-07T13:44:22;9.88;;;5.40;;
40072;SDS011;25774;52.256;9.356;2023-04-07T13:46:47;9.90;;;5.32;;
40072;SDS011;25774;52.256;9.356;2023-04-07T13:49:13;9.40;;;5.45;;
40072;SDS011;25774;52.256;9.356;2023-04-07T13:51:41;9.75;;;4.65;;
40072;SDS011;25774;52.256;9.356;2023-04-07T13:54:06;10.27;;;4.87;;
40072;SDS011;25774;52.256;9.356;2023-04-07T13:56:31;8.50;;;4.60;;
40072;SDS011;25774;52.256;9.356;2023-04-07T13:58:59;10.30;;;4.57;;
40072;SDS011;25774;52.256;9.356;2023-04-07T14:01:24;8.87;;;5.00;;
40072;SDS011;25774;52.256;9.356;2023-04-07T14:03:50;10.73;;;5.32;;
40072;SDS011;25774;52.256;9.356;2023-04-07T14:06:17;10.25;;;5.40;;
40072;SDS011;25774;52.256;9.356;2023-04-07T14:11:07;9.30;;;4.72;;
40072;SDS011;25774;52.256;9.356;2023-04-07T14:13:32;10.20;;;4.33;;
40072;SDS011;25774;52.256;9.356;2023-04-07T14:15:58;7.43;;;4.03;;
40072;SDS011;25774;52.256;9.356;2023-04-07T14:18:23;8.37;;;4.20;;
40072;SDS011;25774;52.256;9.356;2023-04-07T14:20:48;9.90;;;5.47;;
40072;SDS011;25774;52.256;9.356;2023-04-07T14:23:14;9.75;;;5.28;;
40072;SDS011;25774;52.256;9.356;2023-04-07T14:25:39;9.70;;;4.80;;
40072;SDS011;25774;52.256;9.356;2023-04-07T14:28:05;7.45;;;4.25;;
40072;SDS011;25774;52.256;9.356;2023-04-07T14:30:30;8.85;;;4.63;;
40072;SDS011;25774;52.256;9.356;2023-04-07T14:32:55;8.75;;;4.47;;
40072;SDS011;25774;52.256;9.356;2023-04-07T14:35:21;10.47;;;4.63;;
40072;SDS011;25774;52.256;9.356;2023-04-07T14:37:46;9.30;;;4.53;;
40072;SDS011;25774;52.256;9.356;2023-04-07T14:40:13;10.43;;;4.33;;
40072;SDS011;25774;52.256;9.356;2023-04-07T14:42:38;10.07;;;4.78;;
40072;SDS011;25774;52.256;9.356;2023-04-07T14:45:04;9.57;;;4.43;;
40072;SDS011;25774;52.256;9.356;2023-04-07T14:47:29;13.93;;;5.35;;
40072;SDS011;25774;52.256;9.356;2023-04-07T14:49:54;8.13;;;4.20;;
40072;SDS011;25774;52.256;9.356;2023-04-07T14:52:20;6.73;;;3.73;;
40072;SDS011;25774;52.256;9.356;2023-04-07T14:54:45;7.15;;;4.32;;
40072;SDS011;25774;52.256;9.356;2023-04-07T14:57:11;8.98;;;4.88;;
40072;SDS011;25774;52.256;9.356;2023-04-07T14:59:36;8.33;;;4.30;;
40072;SDS011;25774;52.256;9.356;2023-04-07T15:02:01;9.07;;;4.63;;
40072;SDS011;25774;52.256;9.356;2023-04-07T15:04:26;7.40;;;4.17;;
40072;SDS011;25774;52.256;9.356;2023-04-07T15:06:52;7.00;;;4.00;;
40072;SDS011;25774;52.256;9.356;2023-04-07T15:09:17;10.17;;;4.87;;
40072;SDS011;25774;52.256;9.356;2023-04-07T15:11:43;7.22;;;4.03;;
40072;SDS011;25774;52.256;9.356;2023-04-07T15:14:10;6.50;;;3.70;;
40072;SDS011;25774;52.256;9.356;2023-04-07T15:16:35;9.37;;;4.30;;